Terminal Aerodrome Forecast
Issued by NWS Cleveland, OH

Home | Current Version | Previous Version | Text Only | Print | Product List | Glossary Off
Versions: 1 2 3 4 5 6 7 8 9 10 11 12 13 14 15 16 17 18 19 20 21 22

877
FTUS41 KCLE 260530
TAFMFD
TAF
KMFD 260530Z 2606/2706 21012KT P6SM SCT050 BKN250
      TEMPO 2608/2610 3SM -TSRA BR BKN030CB
     FM261100 24012G18KT P6SM VCSH BKN030
     FM261600 29010KT P6SM VCSH OVC010
     FM262100 36013KT P6SM OVC020=

USA.gov is the U.S. government's official web portal to all federal, state and local government web resources and services.